createdAt,value
2016-10-15T00:00:51.270Z,59.22
2016-10-15T00:01:51.256Z,59.22
2016-10-15T00:02:51.245Z,59.02
2016-10-15T00:03:51.224Z,59.41
2016-10-15T00:04:51.203Z,59.69
2016-10-15T00:05:51.190Z,59.31
2016-10-15T00:06:51.172Z,59.69
2016-10-15T00:07:51.172Z,59.22
2016-10-15T00:08:50.827Z,59.12
2016-10-15T00:09:51.120Z,59.69
2016-10-15T00:10:51.101Z,59.12
2016-10-15T00:11:51.092Z,58.92
2016-10-15T00:12:51.071Z,59.22
2016-10-15T00:13:51.052Z,59.02
2016-10-15T00:14:51.038Z,59.22
2016-10-15T00:15:51.017Z,59.12
2016-10-15T00:16:50.684Z,59.22
2016-10-15T00:17:50.991Z,59.69
2016-10-15T00:18:50.971Z,59.69
2016-10-15T00:19:50.636Z,59.31
2016-10-15T00:20:50.943Z,59.31
2016-10-15T00:21:50.925Z,59.41
2016-10-15T00:22:50.906Z,59.79
2016-10-15T00:23:50.885Z,59.22
2016-10-15T00:24:50.555Z,59.12
2016-10-15T00:25:50.865Z,59.22
2016-10-15T00:26:50.841Z,59.41
2016-10-15T00:27:50.824Z,59.6
2016-10-15T00:28:50.488Z,59.41
2016-10-15T00:29:50.786Z,59.41
2016-10-15T00:30:50.774Z,59.22
2016-10-15T00:31:50.756Z,59.41
2016-10-15T00:32:50.425Z,59.6
2016-10-15T00:33:50.724Z,58.83
2016-10-15T00:34:50.707Z,59.31
2016-10-15T00:35:50.682Z,59.41
2016-10-15T00:36:50.671Z,59.5
2016-10-15T00:37:50.338Z,59.6
2016-10-15T00:38:50.644Z,59.5
2016-10-15T00:39:50.620Z,59.41
2016-10-15T00:40:50.601Z,59.38
2016-10-15T00:41:50.586Z,59.31
2016-10-15T00:42:50.570Z,59.31
2016-10-15T00:43:50.558Z,59.69
2016-10-15T00:44:50.534Z,59.12
2016-10-15T00:45:50.522Z,59.12
2016-10-15T00:46:50.502Z,59.22
2016-10-15T00:47:50.168Z,59.5
2016-10-15T00:48:50.466Z,59.19
2016-10-15T00:49:50.456Z,59.41
2016-10-15T00:50:50.436Z,59.31
2016-10-15T00:51:50.420Z,59.12
2016-10-15T00:52:50.096Z,59.5
2016-10-15T00:53:50.071Z,59.12
2016-10-15T00:54:50.370Z,59.6
2016-10-15T00:55:50.346Z,59.31
2016-10-15T00:56:50.021Z,59.41
2016-10-15T00:57:50.317Z,59.31
2016-10-15T00:58:50.298Z,59.22
2016-10-15T00:59:50.285Z,59.99
2016-10-15T01:00:50.267Z,59.6
2016-10-15T01:01:50.256Z,60.17
2016-10-15T01:02:50.231Z,59.89
2016-10-15T01:03:50.220Z,59.89
2016-10-15T01:04:50.200Z,60.08
2016-10-15T01:05:50.186Z,59.89
2016-10-15T01:06:50.161Z,59.79
2016-10-15T01:07:50.150Z,59.89
2016-10-15T01:08:49.816Z,59.89
2016-10-15T01:09:50.111Z,60.27
2016-10-15T01:10:50.108Z,59.89
2016-10-15T01:11:50.082Z,60.17
2016-10-15T01:12:50.061Z,59.89
2016-10-15T01:13:49.734Z,59.99
2016-10-15T01:14:50.028Z,60.27
2016-10-15T01:15:50.014Z,60.66
2016-10-15T01:16:49.997Z,60.66
2016-10-15T01:17:49.977Z,60.66
2016-10-15T01:18:49.960Z,60.66
2016-10-15T01:19:49.950Z,60.75
2016-10-15T01:20:49.924Z,60.24
2016-10-15T01:21:49.610Z,60.72
2016-10-15T01:22:49.893Z,60.46
2016-10-15T01:23:49.883Z,60.56
2016-10-15T01:24:49.862Z,60.56
2016-10-15T01:25:49.857Z,60.46
2016-10-15T01:26:49.831Z,60.56
2016-10-15T01:27:49.812Z,60.66
2016-10-15T01:28:49.797Z,60.85
2016-10-15T01:29:49.777Z,60.46
2016-10-15T01:30:49.760Z,59.99
2016-10-15T01:31:49.744Z,60.27
2016-10-15T01:32:49.727Z,59.99
2016-10-15T01:33:49.710Z,59.69
2016-10-15T01:34:49.695Z,60.46
2016-10-15T01:35:49.684Z,60.46
2016-10-15T01:36:49.656Z,60.37
2016-10-15T01:37:49.642Z,60.46
2016-10-15T01:38:49.624Z,60.75
2016-10-15T01:39:49.617Z,60.75
2016-10-15T01:40:49.595Z,60.08
2016-10-15T01:41:49.576Z,60.05
2016-10-15T01:42:49.557Z,59.99
2016-10-15T01:43:49.553Z,59.99
2016-10-15T01:44:49.528Z,60.08
2016-10-15T01:45:49.511Z,59.86
2016-10-15T01:46:49.487Z,59.76
2016-10-15T01:47:49.156Z,59.89
2016-10-15T01:48:49.463Z,59.95
2016-10-15T01:49:49.445Z,60.24
2016-10-15T01:50:49.424Z,59.89
2016-10-15T01:51:49.095Z,60.27
2016-10-15T01:52:49.392Z,59.99
2016-10-15T01:53:49.379Z,59.86
2016-10-15T01:54:49.353Z,60.34
2016-10-15T01:55:49.336Z,59.95
2016-10-15T01:56:49.013Z,59.76
2016-10-15T01:57:49.308Z,59.76
2016-10-15T01:58:49.289Z,59.76
2016-10-15T01:59:48.958Z,59.69
2016-10-15T02:00:48.942Z,59.76
2016-10-15T02:01:49.239Z,59.99
2016-10-15T02:02:49.224Z,59.86
2016-10-15T02:03:49.212Z,59.86
2016-10-15T02:04:49.185Z,59.86
2016-10-15T02:05:48.858Z,59.86
2016-10-15T02:06:49.155Z,59.86
2016-10-15T02:07:49.138Z,60.24
2016-10-15T02:08:49.120Z,60.63
2016-10-15T02:09:49.111Z,60.34
2016-10-15T02:10:49.086Z,60.37
2016-10-15T02:11:49.085Z,60.63
2016-10-15T02:12:49.054Z,60.66
2016-10-15T02:13:49.042Z,60.56
2016-10-15T02:14:49.023Z,60.63
2016-10-15T02:15:49.006Z,60.53
2016-10-15T02:16:48.677Z,60.72
2016-10-15T02:17:48.972Z,60.63
2016-10-15T02:18:48.960Z,59.89
2016-10-15T02:19:48.937Z,60.14
2016-10-15T02:20:48.922Z,60.43
2016-10-15T02:21:48.902Z,60.17
2016-10-15T02:22:48.895Z,60.05
2016-10-15T02:23:48.556Z,60.08
2016-10-15T02:24:48.855Z,60.14
2016-10-15T02:25:48.838Z,60.24
2016-10-15T02:26:48.837Z,60.24
2016-10-15T02:27:48.803Z,60.14
2016-10-15T02:28:48.788Z,59.95
2016-10-15T02:29:48.767Z,59.76
2016-10-15T02:30:48.750Z,60.24
2016-10-15T02:31:48.742Z,59.86
2016-10-15T02:32:48.720Z,60.05
2016-10-15T02:33:48.704Z,59.86
2016-10-15T02:34:48.690Z,59.95
2016-10-15T02:35:48.350Z,59.66
2016-10-15T02:36:48.653Z,60.05
2016-10-15T02:37:48.642Z,60.34
2016-10-15T02:38:48.623Z,59.76
2016-10-15T02:39:48.600Z,59.95
2016-10-15T02:40:48.582Z,59.76
2016-10-15T02:41:48.567Z,59.86
2016-10-15T02:42:48.242Z,59.95
2016-10-15T02:43:48.536Z,59.76
2016-10-15T02:44:48.519Z,59.57
2016-10-15T02:45:48.501Z,59.76
2016-10-15T02:46:48.487Z,60.24
2016-10-15T02:47:48.466Z,60.14
2016-10-15T02:48:48.454Z,59.76
2016-10-15T02:49:48.432Z,60.14
2016-10-15T02:50:48.421Z,60.24
2016-10-15T02:51:48.405Z,59.47
2016-10-15T02:52:48.383Z,60.05
2016-10-15T02:53:48.368Z,60.24
2016-10-15T02:54:48.355Z,59.66
2016-10-15T02:55:48.332Z,59.95
2016-10-15T02:56:48.311Z,60.14
2016-10-15T02:57:48.306Z,60.05
2016-10-15T02:58:48.280Z,59.86
2016-10-15T02:59:48.271Z,59.86
2016-10-15T03:00:48.256Z,60.63
2016-10-15T03:01:48.231Z,60.14
2016-10-15T03:02:48.216Z,59.86
2016-10-15T03:03:48.200Z,59.76
2016-10-15T03:04:48.187Z,59.86
2016-10-15T03:05:47.850Z,59.86
2016-10-15T03:06:48.155Z,59.86
2016-10-15T03:07:47.818Z,59.86
2016-10-15T03:08:47.807Z,59.86
2016-10-15T03:09:48.099Z,59.86
2016-10-15T03:10:47.770Z,59.95
2016-10-15T03:11:48.063Z,60.14
2016-10-15T03:12:48.048Z,59.86
2016-10-15T03:13:48.037Z,59.95
2016-10-15T03:14:48.012Z,59.95
2016-10-15T03:15:48.007Z,59.95
2016-10-15T03:16:47.982Z,59.76
2016-10-15T03:17:47.968Z,59.86
2016-10-15T03:18:47.951Z,59.66
2016-10-15T03:19:47.616Z,59.66
2016-10-15T03:20:47.917Z,59.76
2016-10-15T03:21:47.900Z,60.05
2016-10-15T03:22:47.883Z,59.66
2016-10-15T03:23:47.861Z,59.47
2016-10-15T03:24:47.854Z,59.19
2016-10-15T03:25:47.833Z,59.57
2016-10-15T03:26:47.816Z,59.95
2016-10-15T03:27:47.481Z,59.86
2016-10-15T03:28:47.784Z,59.76
2016-10-15T03:29:47.766Z,60.63
2016-10-15T03:30:47.745Z,59.86
2016-10-15T03:31:47.730Z,60.05
2016-10-15T03:32:47.715Z,60.14
2016-10-15T03:33:47.702Z,60.24
2016-10-15T03:34:47.681Z,59.95
2016-10-15T03:35:47.662Z,59.66
2016-10-15T03:36:47.646Z,59.95
2016-10-15T03:37:47.625Z,59.66
2016-10-15T03:38:47.616Z,59.86
2016-10-15T03:39:47.599Z,60.14
2016-10-15T03:40:47.577Z,59.86
2016-10-15T03:41:47.564Z,60.24
2016-10-15T03:42:47.545Z,60.24
2016-10-15T03:43:47.528Z,59.76
2016-10-15T03:44:47.520Z,59.76
2016-10-15T03:45:47.497Z,60.34
2016-10-15T03:46:47.164Z,60.24
2016-10-15T03:47:47.467Z,59.66
2016-10-15T03:48:47.128Z,60.24
2016-10-15T03:49:47.425Z,59.76
2016-10-15T03:50:47.410Z,59.86
2016-10-15T03:51:47.079Z,59.47
2016-10-15T03:52:47.381Z,59.86
2016-10-15T03:53:47.362Z,59.95
2016-10-15T03:54:47.342Z,60.24
2016-10-15T03:55:47.328Z,60.14
2016-10-15T03:56:47.313Z,59.86
2016-10-15T03:57:47.299Z,59.66
2016-10-15T03:58:47.289Z,60.14
2016-10-15T03:59:47.287Z,59.86
2016-10-15T04:00:47.244Z,59.66
2016-10-15T04:01:47.227Z,59.95
2016-10-15T04:02:46.890Z,59.86
2016-10-15T04:03:47.190Z,59.86
2016-10-15T04:04:47.181Z,59.95
2016-10-15T04:05:47.168Z,60.24
2016-10-15T04:06:47.143Z,59.47
2016-10-15T04:07:46.816Z,59.38
2016-10-15T04:08:47.110Z,59.09
2016-10-15T04:09:47.093Z,59.09
2016-10-15T04:10:47.084Z,58.54
2016-10-15T04:11:47.059Z,58.83
2016-10-15T04:12:47.044Z,58.64
2016-10-15T04:13:47.026Z,58.15
2016-10-15T04:14:47.015Z,58.54
2016-10-15T04:15:46.676Z,58.25
2016-10-15T04:16:46.973Z,58.54
2016-10-15T04:17:46.962Z,58.54
2016-10-15T04:18:46.628Z,58.54
2016-10-15T04:19:46.941Z,58.54
2016-10-15T04:20:46.908Z,58.54
2016-10-15T04:21:46.889Z,58.64
2016-10-15T04:22:46.560Z,58.73
2016-10-15T04:23:46.859Z,58.54
2016-10-15T04:24:46.850Z,58.25
2016-10-15T04:25:46.824Z,58.73
2016-10-15T04:26:46.813Z,58.73
2016-10-15T04:27:46.790Z,58.25
2016-10-15T04:28:46.461Z,58.45
2016-10-15T04:29:46.446Z,58.45
2016-10-15T04:30:46.746Z,58.25
2016-10-15T04:31:46.411Z,58.45
2016-10-15T04:32:46.704Z,58.06
2016-10-15T04:33:46.375Z,57.97
2016-10-15T04:34:46.694Z,57.97
2016-10-15T04:35:46.660Z,57.87
2016-10-15T04:36:46.639Z,58.15
2016-10-15T04:37:46.632Z,57.97
2016-10-15T04:38:46.607Z,58.15
2016-10-15T04:39:46.590Z,57.77
2016-10-15T04:40:46.261Z,57.77
2016-10-15T04:41:46.556Z,57.87
2016-10-15T04:42:46.547Z,58.06
2016-10-15T04:43:46.523Z,58.25
2016-10-15T04:44:46.507Z,57.97
2016-10-15T04:45:46.491Z,57.97
2016-10-15T04:46:46.474Z,58.06
2016-10-15T04:47:46.141Z,58.06
2016-10-15T04:48:46.441Z,58.06
2016-10-15T04:49:46.424Z,58.15
2016-10-15T04:50:46.407Z,58.06
2016-10-15T04:51:46.388Z,57.87
2016-10-15T04:52:46.372Z,57.77
2016-10-15T04:53:46.359Z,57.77
2016-10-15T04:54:46.340Z,57.87
2016-10-15T04:55:46.325Z,58.35
2016-10-15T04:56:46.312Z,57.77
2016-10-15T04:57:46.289Z,57.77
2016-10-15T04:58:46.273Z,58.35
2016-10-15T04:59:46.259Z,57.87
2016-10-15T05:00:45.925Z,58.25
2016-10-15T05:01:46.224Z,58.15
2016-10-15T05:02:46.207Z,58.15
2016-10-15T05:03:46.194Z,57.87
2016-10-15T05:04:46.175Z,57.68
2016-10-15T05:05:46.161Z,57.97
2016-10-15T05:06:46.147Z,57.68
2016-10-15T05:07:46.127Z,57.77
2016-10-15T05:08:46.108Z,57.77
2016-10-15T05:09:46.093Z,58.25
2016-10-15T05:10:46.071Z,57.77
2016-10-15T05:11:46.056Z,57.77
2016-10-15T05:12:45.725Z,57.77
2016-10-15T05:13:46.026Z,57.77
2016-10-15T05:14:46.009Z,57.77
2016-10-15T05:15:45.674Z,58.25
2016-10-15T05:16:45.981Z,57.77
2016-10-15T05:17:45.957Z,57.77
2016-10-15T05:18:45.946Z,57.77
2016-10-15T05:19:45.923Z,58.15
2016-10-15T05:20:45.908Z,57.9
2016-10-15T05:21:45.888Z,57.97
2016-10-15T05:22:45.559Z,57.87
2016-10-15T05:23:45.544Z,57.68
2016-10-15T05:24:45.839Z,57.97
2016-10-15T05:25:45.827Z,57.8
2016-10-15T05:26:45.808Z,57.68
2016-10-15T05:27:45.794Z,57.8
2016-10-15T05:28:45.776Z,57.6
2016-10-15T05:29:45.756Z,57.51
2016-10-15T05:30:45.741Z,57.51
2016-10-15T05:31:45.722Z,57.6
2016-10-15T05:32:45.710Z,57.8
2016-10-15T05:33:45.695Z,57.6
2016-10-15T05:34:45.676Z,57.39
2016-10-15T05:35:45.657Z,57.51
2016-10-15T05:36:45.327Z,57.48
2016-10-15T05:37:45.622Z,57.51
2016-10-15T05:38:45.293Z,57.7
2016-10-15T05:39:45.592Z,57.99
2016-10-15T05:40:45.575Z,57.51
2016-10-15T05:41:45.557Z,57.7
2016-10-15T05:42:45.551Z,57.99
2016-10-15T05:43:45.531Z,57.9
2016-10-15T05:44:45.503Z,57.51
2016-10-15T05:45:45.488Z,57.87
2016-10-15T05:46:45.473Z,58.09
2016-10-15T05:47:45.460Z,57.68
2016-10-15T05:48:45.441Z,57.51
2016-10-15T05:49:45.421Z,57.68
2016-10-15T05:50:45.407Z,57.6
2016-10-15T05:51:45.075Z,57.6
2016-10-15T05:52:45.376Z,57.42
2016-10-15T05:53:45.356Z,57.51
2016-10-15T05:54:45.339Z,57.7
2016-10-15T05:55:45.011Z,57.51
2016-10-15T05:56:45.312Z,57.48
2016-10-15T05:57:45.292Z,57.7
2016-10-15T05:58:45.276Z,57.51
2016-10-15T05:59:45.259Z,57.58
2016-10-15T06:00:45.244Z,57.6
2016-10-15T06:01:45.235Z,57.58
2016-10-15T06:02:45.209Z,57.39
2016-10-15T06:03:45.200Z,57.42
2016-10-15T06:04:45.174Z,57.77
2016-10-15T06:05:45.155Z,57.7
2016-10-15T06:06:45.136Z,57.7
2016-10-15T06:07:45.125Z,57.6
2016-10-15T06:08:45.108Z,57.8
2016-10-15T06:09:45.093Z,57.87
2016-10-15T06:10:45.076Z,57.9
2016-10-15T06:11:45.059Z,57.9
2016-10-15T06:12:45.047Z,57.99
2016-10-15T06:13:45.032Z,58.18
2016-10-15T06:14:45.007Z,57.6
2016-10-15T06:15:44.994Z,57.42
2016-10-15T06:16:44.975Z,57.42
2016-10-15T06:17:44.961Z,57.32
2016-10-15T06:18:44.942Z,57.42
2016-10-15T06:19:44.923Z,57.51
2016-10-15T06:20:44.910Z,57.32
2016-10-15T06:21:44.576Z,57.42
2016-10-15T06:22:44.884Z,57.42
2016-10-15T06:23:44.860Z,57.99
2016-10-15T06:24:44.845Z,57.42
2016-10-15T06:25:44.510Z,57.8
2016-10-15T06:26:44.809Z,57.9
2016-10-15T06:27:44.795Z,57.9
2016-10-15T06:28:44.774Z,57.8
2016-10-15T06:29:44.758Z,57.9
2016-10-15T06:30:44.748Z,57.51
2016-10-15T06:31:44.726Z,57.51
2016-10-15T06:32:44.711Z,57.8
2016-10-15T06:33:44.696Z,57.6
2016-10-15T06:34:44.677Z,57.51
2016-10-15T06:35:44.663Z,57.51
2016-10-15T06:36:44.331Z,57.6
2016-10-15T06:37:44.313Z,57.42
2016-10-15T06:38:44.296Z,57.51
2016-10-15T06:39:44.599Z,57.42
2016-10-15T06:40:44.577Z,57.6
2016-10-15T06:41:44.569Z,57.6
2016-10-15T06:42:44.545Z,57.7
2016-10-15T06:43:44.528Z,57.99
2016-10-15T06:44:44.513Z,57.8
2016-10-15T06:45:44.499Z,57.6
2016-10-15T06:46:44.481Z,57.99
2016-10-15T06:47:44.461Z,57.6
2016-10-15T06:48:44.446Z,57.6
2016-10-15T06:49:44.429Z,57.6
2016-10-15T06:50:44.102Z,57.9
2016-10-15T06:51:44.085Z,57.8
2016-10-15T06:52:44.387Z,57.8
2016-10-15T06:53:44.361Z,57.9
2016-10-15T06:54:44.349Z,57.7
2016-10-15T06:55:44.330Z,57.6
2016-10-15T06:56:44.314Z,57.7
2016-10-15T06:57:44.297Z,57.6
2016-10-15T06:58:44.280Z,57.6
2016-10-15T06:59:44.265Z,57.51
2016-10-15T07:00:44.248Z,57.8
2016-10-15T07:01:44.230Z,57.8
2016-10-15T07:02:44.217Z,58.09
2016-10-15T07:03:44.198Z,57.7
2016-10-15T07:04:44.181Z,57.42
2016-10-15T07:05:44.166Z,57.7
2016-10-15T07:06:44.152Z,57.7
2016-10-15T07:07:44.131Z,57.51
2016-10-15T07:08:43.800Z,57.32
2016-10-15T07:09:44.101Z,57.32
2016-10-15T07:10:43.770Z,57.51
2016-10-15T07:11:44.069Z,57.42
2016-10-15T07:12:44.050Z,57.51
2016-10-15T07:13:44.034Z,57.51
2016-10-15T07:14:44.017Z,57.51
2016-10-15T07:15:44.002Z,57.42
2016-10-15T07:16:43.982Z,57.32
2016-10-15T07:17:43.967Z,57.51
2016-10-15T07:18:43.950Z,57.8
2016-10-15T07:19:43.943Z,57.8
2016-10-15T07:20:43.918Z,57.9
2016-10-15T07:21:43.584Z,58.09
2016-10-15T07:22:43.885Z,57.8
2016-10-15T07:23:43.558Z,57.99
2016-10-15T07:24:43.854Z,57.9
2016-10-15T07:25:43.836Z,57.7
2016-10-15T07:26:43.817Z,57.8
2016-10-15T07:27:43.804Z,57.9
2016-10-15T07:28:43.784Z,57.42
2016-10-15T07:29:43.779Z,56.55
2016-10-15T07:30:43.759Z,56.81
2016-10-15T07:31:43.738Z,58.13
2016-10-15T07:32:43.721Z,58.03
2016-10-15T07:33:43.706Z,58.58
2016-10-15T07:34:43.691Z,58.48
2016-10-15T07:35:43.671Z,58.1
2016-10-15T07:36:43.346Z,58.67
2016-10-15T07:37:43.633Z,58.29
2016-10-15T07:38:43.622Z,58.84
2016-10-15T07:39:43.605Z,58.07
2016-10-15T07:40:43.586Z,57.9
2016-10-15T07:41:43.570Z,57.43
2016-10-15T07:42:43.555Z,57.84
2016-10-15T07:43:43.538Z,57.65
2016-10-15T07:44:43.525Z,58.06
2016-10-15T07:45:43.504Z,57.77
2016-10-15T07:46:43.170Z,58.06
2016-10-15T07:47:43.471Z,58.06
2016-10-15T07:48:43.456Z,57.58
2016-10-15T07:49:43.124Z,57.58
2016-10-15T07:50:43.422Z,57.39
2016-10-15T07:51:43.406Z,57.39
2016-10-15T07:52:43.387Z,57.58
2016-10-15T07:53:43.370Z,57.87
2016-10-15T07:54:43.355Z,57.58
2016-10-15T07:55:43.337Z,57.77
2016-10-15T07:56:43.323Z,57.51
2016-10-15T07:57:43.307Z,57.8
2016-10-15T07:58:43.288Z,57.9
2016-10-15T07:59:43.273Z,57.8
2016-10-15T08:00:42.941Z,57.9
2016-10-15T08:01:43.238Z,57.8
2016-10-15T08:02:43.233Z,58.09
2016-10-15T08:03:43.206Z,57.99
2016-10-15T08:04:43.191Z,57.6
2016-10-15T08:05:43.173Z,57.51
2016-10-15T08:06:43.154Z,57.8
2016-10-15T08:07:43.139Z,57.32
2016-10-15T08:08:43.122Z,57.42
2016-10-15T08:09:43.108Z,57.42
2016-10-15T08:10:43.089Z,57.32
2016-10-15T08:11:43.078Z,57.51
2016-10-15T08:12:43.057Z,57.32
2016-10-15T08:13:43.042Z,57.42
2016-10-15T08:14:43.018Z,57.99
2016-10-15T08:15:42.689Z,57.6
2016-10-15T08:16:42.988Z,57.99
2016-10-15T08:17:42.657Z,58.09
2016-10-15T08:18:42.962Z,57.8
2016-10-15T08:19:42.940Z,57.8
2016-10-15T08:20:42.938Z,57.6
2016-10-15T08:21:42.908Z,57.99
2016-10-15T08:22:42.891Z,58.18
2016-10-15T08:23:42.875Z,57.7
2016-10-15T08:24:42.870Z,57.99
2016-10-15T08:25:42.841Z,58.18
2016-10-15T08:26:42.830Z,57.99
2016-10-15T08:27:42.807Z,57.8
2016-10-15T08:28:42.791Z,57.51
2016-10-15T08:29:42.788Z,57.99
2016-10-15T08:30:42.763Z,58.18
2016-10-15T08:31:42.752Z,57.7
2016-10-15T08:32:42.731Z,57.99
2016-10-15T08:33:42.393Z,58.18
2016-10-15T08:34:42.702Z,57.8
2016-10-15T08:35:42.361Z,57.8
2016-10-15T08:36:42.660Z,57.8
2016-10-15T08:37:42.330Z,57.99
2016-10-15T08:38:42.633Z,57.9
2016-10-15T08:39:42.614Z,57.9
2016-10-15T08:40:42.593Z,57.7
2016-10-15T08:41:42.578Z,57.6
2016-10-15T08:42:42.246Z,57.42
2016-10-15T08:43:42.545Z,57.6
2016-10-15T08:44:42.539Z,57.6
2016-10-15T08:45:42.510Z,57.7
2016-10-15T08:46:42.495Z,57.7
2016-10-15T08:47:42.478Z,57.7
2016-10-15T08:48:42.461Z,57.6
2016-10-15T08:49:42.449Z,57.6
2016-10-15T08:50:42.428Z,57.7
2016-10-15T08:51:42.421Z,57.6
2016-10-15T08:52:42.084Z,57.7
2016-10-15T08:53:42.062Z,57.9
2016-10-15T08:54:42.363Z,57.6
2016-10-15T08:55:42.346Z,57.42
2016-10-15T08:56:42.333Z,57.8
2016-10-15T08:57:42.315Z,57.6
2016-10-15T08:58:42.306Z,57.7
2016-10-15T08:59:42.278Z,57.6
2016-10-15T09:00:42.265Z,57.6
2016-10-15T09:01:42.250Z,57.7
2016-10-15T09:02:42.231Z,57.9
2016-10-15T09:03:42.215Z,57.8
2016-10-15T09:04:42.209Z,57.8
2016-10-15T09:05:42.178Z,57.7
2016-10-15T09:06:42.159Z,57.8
2016-10-15T09:07:42.151Z,57.7
2016-10-15T09:08:42.135Z,57.8
2016-10-15T09:09:42.106Z,58.09
2016-10-15T09:10:42.092Z,57.99
2016-10-15T09:11:42.088Z,58.09
2016-10-15T09:12:42.063Z,57.99
2016-10-15T09:13:42.045Z,57.8
2016-10-15T09:14:42.043Z,57.8
2016-10-15T09:15:42.019Z,57.8
2016-10-15T09:16:41.999Z,57.8
2016-10-15T09:17:41.983Z,57.8
2016-10-15T09:18:41.974Z,57.9
2016-10-15T09:19:41.950Z,57.7
2016-10-15T09:20:41.935Z,57.6
2016-10-15T09:21:41.923Z,57.9
2016-10-15T09:22:41.895Z,57.6
2016-10-15T09:23:41.883Z,57.6
2016-10-15T09:24:41.552Z,57.6
2016-10-15T09:25:41.850Z,57.6
2016-10-15T09:26:41.834Z,57.8
2016-10-15T09:27:41.817Z,57.8
2016-10-15T09:28:41.800Z,57.7
2016-10-15T09:29:41.784Z,57.6
2016-10-15T09:30:41.772Z,57.42
2016-10-15T09:31:41.758Z,57.6
2016-10-15T09:32:41.749Z,57.42
2016-10-15T09:33:41.720Z,57.32
2016-10-15T09:34:41.700Z,57.51
2016-10-15T09:35:41.684Z,57.7
2016-10-15T09:36:41.671Z,57.51
2016-10-15T09:37:41.655Z,57.8
2016-10-15T09:38:41.634Z,57.6
2016-10-15T09:39:41.618Z,57.51
2016-10-15T09:40:41.289Z,57.6
2016-10-15T09:41:41.594Z,57.9
2016-10-15T09:42:41.569Z,57.8
2016-10-15T09:43:41.552Z,57.6
2016-10-15T09:44:41.540Z,57.7
2016-10-15T09:45:41.523Z,57.8
2016-10-15T09:46:41.506Z,57.7
2016-10-15T09:47:41.491Z,57.51
2016-10-15T09:48:41.469Z,57.8
2016-10-15T09:49:41.450Z,57.42
2016-10-15T09:50:41.442Z,57.9
2016-10-15T09:51:41.427Z,57.8
2016-10-15T09:52:41.401Z,58.09
2016-10-15T09:53:41.390Z,57.7
2016-10-15T09:54:41.372Z,58.09
2016-10-15T09:55:41.361Z,57.51
2016-10-15T09:56:41.340Z,58.09
2016-10-15T09:57:41.329Z,57.9
2016-10-15T09:58:41.309Z,58.09
2016-10-15T09:59:41.296Z,57.7
2016-10-15T10:00:41.277Z,57.9
2016-10-15T10:01:41.254Z,57.7
2016-10-15T10:02:41.243Z,58.09
2016-10-15T10:03:41.224Z,57.7
2016-10-15T10:04:41.206Z,57.7
2016-10-15T10:05:41.193Z,57.7
2016-10-15T10:06:41.180Z,57.51
2016-10-15T10:07:41.163Z,57.42
2016-10-15T10:08:41.139Z,57.42
2016-10-15T10:09:41.132Z,57.6
2016-10-15T10:10:41.113Z,57.6
2016-10-15T10:11:41.092Z,57.6
2016-10-15T10:12:41.079Z,58.18
2016-10-15T10:13:41.057Z,58.67
2016-10-15T10:14:41.041Z,59.44
2016-10-15T10:15:41.029Z,58.95
2016-10-15T10:16:41.013Z,58.76
2016-10-15T10:17:40.994Z,58.57
2016-10-15T10:18:40.975Z,58.67
2016-10-15T10:19:40.958Z,57.9
2016-10-15T10:20:40.953Z,58.18
2016-10-15T10:21:40.931Z,57.9
2016-10-15T10:22:40.910Z,57.9
2016-10-15T10:23:40.899Z,57.99
2016-10-15T10:24:40.877Z,57.7
2016-10-15T10:25:40.867Z,57.99
2016-10-15T10:26:40.844Z,57.9
2016-10-15T10:27:40.826Z,57.99
2016-10-15T10:28:40.813Z,58.18
2016-10-15T10:29:40.796Z,57.99
2016-10-15T10:30:40.778Z,57.9
2016-10-15T10:31:40.757Z,58.18
2016-10-15T10:32:40.747Z,57.9
2016-10-15T10:33:40.727Z,57.7
2016-10-15T10:34:40.714Z,58.09
2016-10-15T10:35:40.694Z,57.9
2016-10-15T10:36:40.685Z,57.99
2016-10-15T10:37:40.660Z,57.99
2016-10-15T10:38:40.651Z,57.9
2016-10-15T10:39:40.638Z,57.8
2016-10-15T10:40:40.619Z,57.9
2016-10-15T10:41:40.601Z,58.28
2016-10-15T10:42:40.578Z,58.28
2016-10-15T10:43:40.248Z,58.28
2016-10-15T10:44:40.549Z,57.99
2016-10-15T10:45:40.544Z,57.99
2016-10-15T10:46:40.517Z,58.76
2016-10-15T10:47:40.181Z,57.9
2016-10-15T10:48:40.172Z,58.37
2016-10-15T10:49:40.149Z,58.28
2016-10-15T10:50:40.460Z,59.05
2016-10-15T10:51:40.119Z,58.67
2016-10-15T10:52:40.413Z,58.37
2016-10-15T10:53:40.403Z,58.28
2016-10-15T10:54:40.069Z,58.67
2016-10-15T10:55:40.369Z,58.76
2016-10-15T10:56:40.347Z,58.47
2016-10-15T10:57:40.409Z,58.28
2016-10-15T10:58:40.318Z,58.76
2016-10-15T10:59:40.299Z,58.47
2016-10-15T11:00:40.285Z,57.9
2016-10-15T11:01:40.278Z,58.57
2016-10-15T11:02:40.251Z,58.37
2016-10-15T11:03:39.930Z,58.37
2016-10-15T11:04:40.217Z,58.67
2016-10-15T11:05:40.207Z,58.76
2016-10-15T11:06:40.192Z,58.37
2016-10-15T11:07:40.172Z,58.47
2016-10-15T11:08:40.151Z,58.47
2016-10-15T11:09:40.145Z,58.37
2016-10-15T11:10:40.118Z,58.18
2016-10-15T11:11:39.809Z,58.18
2016-10-15T11:12:40.088Z,58.47
2016-10-15T11:13:39.761Z,58.67
2016-10-15T11:14:39.736Z,58.67
2016-10-15T11:15:40.043Z,58.18
2016-10-15T11:16:40.034Z,58.37
2016-10-15T11:17:39.693Z,58.28
2016-10-15T11:18:39.993Z,58.37
2016-10-15T11:19:39.973Z,58.76
2016-10-15T11:20:39.954Z,58.67
2016-10-15T11:21:39.942Z,58.67
2016-10-15T11:22:39.925Z,58.47
2016-10-15T11:23:39.602Z,58.47
2016-10-15T11:24:39.900Z,58.37
2016-10-15T11:25:39.560Z,58.57
2016-10-15T11:26:39.854Z,58.67
2016-10-15T11:27:39.849Z,58.37
2016-10-15T11:28:39.832Z,58.18
2016-10-15T11:29:39.811Z,58.28
2016-10-15T11:30:39.794Z,58.57
2016-10-15T11:31:39.775Z,58.37
2016-10-15T11:32:39.447Z,58.37
2016-10-15T11:33:39.742Z,58.18
2016-10-15T11:34:39.410Z,58.57
2016-10-15T11:35:39.395Z,58.37
2016-10-15T11:36:39.698Z,58.67
2016-10-15T11:37:39.673Z,58.57
2016-10-15T11:38:39.656Z,58.67
2016-10-15T11:39:39.680Z,58.57
2016-10-15T11:40:39.627Z,58.37
2016-10-15T11:41:39.614Z,58.76
2016-10-15T11:42:39.600Z,58.57
2016-10-15T11:43:39.571Z,58.09
2016-10-15T11:44:39.559Z,58.67
2016-10-15T11:45:39.596Z,58.67
2016-10-15T11:46:39.528Z,58.76
2016-10-15T11:47:39.508Z,58.47
2016-10-15T11:48:39.501Z,58.67
2016-10-15T11:49:39.484Z,58.37
2016-10-15T11:50:39.462Z,58.67
2016-10-15T11:51:39.445Z,58.28
2016-10-15T11:52:39.432Z,58.37
2016-10-15T11:53:39.411Z,58.09
2016-10-15T11:54:39.413Z,58.67
2016-10-15T11:55:39.387Z,58.18
2016-10-15T11:56:39.367Z,58.76
2016-10-15T11:57:39.348Z,58.67
2016-10-15T11:58:39.333Z,58.76
2016-10-15T11:59:39.314Z,58.47
2016-10-15T12:00:39.309Z,58.76
2016-10-15T12:01:39.281Z,58.67
2016-10-15T12:02:39.516Z,58.76
2016-10-15T12:03:39.247Z,58.67
2016-10-15T12:04:39.232Z,58.76
2016-10-15T12:05:39.215Z,58.37
2016-10-15T12:06:39.206Z,58.67
2016-10-15T12:07:39.185Z,58.28
2016-10-15T12:08:39.171Z,58.47
2016-10-15T12:09:39.150Z,58.47
2016-10-15T12:10:38.816Z,58.67
2016-10-15T12:11:39.121Z,58.37
2016-10-15T12:12:39.100Z,58.67
2016-10-15T12:13:39.087Z,58.57
2016-10-15T12:14:39.073Z,58.47
2016-10-15T12:15:39.053Z,58.47
2016-10-15T12:16:39.045Z,58.28
2016-10-15T12:17:39.019Z,58.37
2016-10-15T12:18:38.685Z,58.28
2016-10-15T12:19:38.988Z,58.28
2016-10-15T12:20:38.966Z,58.28
2016-10-15T12:21:38.955Z,58.18
2016-10-15T12:22:38.936Z,58.57
2016-10-15T12:23:38.917Z,58.57
2016-10-15T12:24:38.904Z,58.28
2016-10-15T12:25:38.889Z,58.37
2016-10-15T12:26:38.872Z,58.18
2016-10-15T12:27:38.853Z,58.47
2016-10-15T12:28:38.838Z,58.67
2016-10-15T12:29:38.513Z,58.37
2016-10-15T12:30:38.813Z,58.57
2016-10-15T12:31:38.794Z,58.47
2016-10-15T12:32:38.778Z,58.47
2016-10-15T12:33:38.754Z,58.28
2016-10-15T12:34:38.738Z,58.28
2016-10-15T12:35:38.407Z,58.28
2016-10-15T12:36:38.392Z,58.37
2016-10-15T12:37:38.691Z,58.57
2016-10-15T12:38:38.674Z,58.57
2016-10-15T12:39:38.343Z,58.47
2016-10-15T12:40:38.642Z,58.18
2016-10-15T12:41:38.626Z,58.37
2016-10-15T12:42:38.614Z,58.67
2016-10-15T12:43:38.595Z,58.57
2016-10-15T12:44:38.579Z,58.67
2016-10-15T12:45:38.559Z,58.67
2016-10-15T12:46:38.546Z,58.76
2016-10-15T12:47:38.530Z,58.57
2016-10-15T12:48:38.512Z,58.76
2016-10-15T12:49:38.496Z,58.57
2016-10-15T12:50:38.478Z,58.47
2016-10-15T12:51:38.460Z,58.57
2016-10-15T12:52:38.447Z,58.76
2016-10-15T12:53:38.428Z,58.67
2016-10-15T12:54:38.415Z,58.67
2016-10-15T12:55:38.078Z,58.76
2016-10-15T12:56:38.381Z,58.67
2016-10-15T12:57:38.361Z,58.47
2016-10-15T12:58:38.346Z,58.47